タヒチ島 の空港の天気 - METARとTAF

タヒチ・ファアア国際空港 ( NTAA / PPT ) - フランス領ポリネシア タヒチ島
飛行場実況気象(Metar)
観測時間06/23 23:30 TAHT (06/24 09:30 UTC)
風向・風速東北東 2m/s
視程10km以上
天気現象
少しの雲 雲底高度 610m
全天の8割程度の雲 雲底高度 1520m
気温25℃
湿度74%
気圧1017hPa
METARNTAA 240930Z 06003KT 9999 FEW020 BKN050 25/20 Q1017 WS R04 NOSIG
過去の天気等 Google飛行場航空写真 Wunderground天気予報

過去48時間のMETAR

飛行場予報(TAF)
発表時間: 6/23 19:00 TAHT (6/24 05:00 UTC)
予報対象時間: 23日20時 TAHT ~ 25日2時 TAHT
風向・風速不定 3m/s
視程10km以上
少しの雲 雲底高度 610m
全天の8割程度の雲 雲底高度 1220m
TAF NTAA 240500Z 2406/2512 VRB05KT 9999 FEW020 BKN040